<?xml version="1.0" encoding="UTF-8" standalone="no" ?>
<gpx xmlns="http://www.topografix.com/GPX/1/1" xmlns:xsi="http://www.w3.org/2001/XMLSchema-instance" xsi:schemaLocation="http://www.topografix.com/GPX/1/1 http://www.topografix.com/GPX/1/1/gpx.xsd" version="1.1" creator="VisuGPX - https://www.visugpx.com">
  <metadata>
    <name>Joyeux Randonneurs à L'Isle (3)</name>
    <desc><![CDATA[Randonnée accessible à tous. Il existe pratiquement toujours des possibilités  pour raccourcir le circuit à environ  6km. ]]></desc>
  </metadata>
  <trk>
    <name><![CDATA[Tracé 22 nov. 2016 14:00:43]]></name>
    <trkseg>
      <trkpt lat="45.2785" lon="0.54952">
        <ele>87.80191892</ele>
        <time>2016-11-22T13:00:43Z</time>
      </trkpt>
      <trkpt lat="45.27837" lon="0.5498">
        <ele>89.80079</ele>
        <time>2016-11-22T13:01:12Z</time>
      </trkpt>
      <trkpt lat="45.27805" lon="0.55006">
        <ele>85.7997668</ele>
        <time>2016-11-22T13:01:42Z</time>
      </trkpt>
      <trkpt lat="45.27784" lon="0.5497">
        <ele>88.80119064</ele>
        <time>2016-11-22T13:02:11Z</time>
      </trkpt>
      <trkpt lat="45.27773" lon="0.54912">
        <ele>86.80352244</ele>
        <time>2016-11-22T13:02:41Z</time>
      </trkpt>
      <trkpt lat="45.2774" lon="0.54913">
        <ele>87.80348816</ele>
        <time>2016-11-22T13:03:11Z</time>
      </trkpt>
      <trkpt lat="45.27716" lon="0.54949">
        <ele>97.802035</ele>
        <time>2016-11-22T13:03:40Z</time>
      </trkpt>
      <trkpt lat="45.27669" lon="0.54965">
        <ele>96.80141388</ele>
        <time>2016-11-22T13:04:09Z</time>
      </trkpt>
      <trkpt lat="45.27633" lon="0.54986">
        <ele>97.80057648</ele>
        <time>2016-11-22T13:04:38Z</time>
      </trkpt>
      <trkpt lat="45.27596" lon="0.55014">
        <ele>97.79942896</ele>
        <time>2016-11-22T13:05:07Z</time>
      </trkpt>
      <trkpt lat="45.27564" lon="0.55038">
        <ele>96.79847968</ele>
        <time>2016-11-22T13:05:36Z</time>
      </trkpt>
      <trkpt lat="45.27543" lon="0.55073">
        <ele>98.79706812</ele>
        <time>2016-11-22T13:06:05Z</time>
      </trkpt>
      <trkpt lat="45.27521" lon="0.55103">
        <ele>110.79586412</ele>
        <time>2016-11-22T13:06:35Z</time>
      </trkpt>
      <trkpt lat="45.27496" lon="0.55145">
        <ele>105.79422004</ele>
        <time>2016-11-22T13:07:05Z</time>
      </trkpt>
      <trkpt lat="45.27473" lon="0.55175">
        <ele>107.79300948</ele>
        <time>2016-11-22T13:07:34Z</time>
      </trkpt>
      <trkpt lat="45.27445" lon="0.552">
        <ele>110.79202008</ele>
        <time>2016-11-22T13:08:04Z</time>
      </trkpt>
      <trkpt lat="45.27414" lon="0.55214">
        <ele>113.79145856</ele>
        <time>2016-11-22T13:08:34Z</time>
      </trkpt>
      <trkpt lat="45.27387" lon="0.55228">
        <ele>119.79088752</ele>
        <time>2016-11-22T13:09:04Z</time>
      </trkpt>
      <trkpt lat="45.27359" lon="0.55232">
        <ele>124.79071052</ele>
        <time>2016-11-22T13:09:33Z</time>
      </trkpt>
      <trkpt lat="45.27326" lon="0.55257">
        <ele>129.7897342</ele>
        <time>2016-11-22T13:10:03Z</time>
      </trkpt>
      <trkpt lat="45.27298" lon="0.55286">
        <ele>128.78855612</ele>
        <time>2016-11-22T13:10:32Z</time>
      </trkpt>
      <trkpt lat="45.27271" lon="0.5531">
        <ele>131.78760232</ele>
        <time>2016-11-22T13:11:01Z</time>
      </trkpt>
      <trkpt lat="45.27243" lon="0.55331">
        <ele>132.786779</ele>
        <time>2016-11-22T13:11:31Z</time>
      </trkpt>
      <trkpt lat="45.27212" lon="0.55358">
        <ele>138.7856744</ele>
        <time>2016-11-22T13:12:00Z</time>
      </trkpt>
      <trkpt lat="45.27189" lon="0.55381">
        <ele>139.78475632</ele>
        <time>2016-11-22T13:12:30Z</time>
      </trkpt>
      <trkpt lat="45.27166" lon="0.55401">
        <ele>146.78396348</ele>
        <time>2016-11-22T13:12:59Z</time>
      </trkpt>
      <trkpt lat="45.27148" lon="0.55435">
        <ele>146.78259136</ele>
        <time>2016-11-22T13:13:28Z</time>
      </trkpt>
      <trkpt lat="45.27129" lon="0.55473">
        <ele>150.78106512</ele>
        <time>2016-11-22T13:13:57Z</time>
      </trkpt>
      <trkpt lat="45.27112" lon="0.55504">
        <ele>150.77982932</ele>
        <time>2016-11-22T13:14:26Z</time>
      </trkpt>
      <trkpt lat="45.27095" lon="0.5551">
        <ele>145.77958408</ele>
        <time>2016-11-22T13:19:17Z</time>
      </trkpt>
      <trkpt lat="45.27074" lon="0.55484">
        <ele>147.78062892</ele>
        <time>2016-11-22T13:19:46Z</time>
      </trkpt>
      <trkpt lat="45.27049" lon="0.55468">
        <ele>148.78130092</ele>
        <time>2016-11-22T13:20:16Z</time>
      </trkpt>
      <trkpt lat="45.27028" lon="0.55499">
        <ele>147.78003628</ele>
        <time>2016-11-22T13:20:45Z</time>
      </trkpt>
      <trkpt lat="45.27006" lon="0.55536">
        <ele>142.77854688</ele>
        <time>2016-11-22T13:21:14Z</time>
      </trkpt>
      <trkpt lat="45.26983" lon="0.55576">
        <ele>139.7769456</ele>
        <time>2016-11-22T13:21:44Z</time>
      </trkpt>
      <trkpt lat="45.26974" lon="0.55555">
        <ele>141.77778668</ele>
        <time>2016-11-22T13:22:27Z</time>
      </trkpt>
      <trkpt lat="45.26973" lon="0.5552">
        <ele>153.779185</ele>
        <time>2016-11-22T13:22:56Z</time>
      </trkpt>
      <trkpt lat="45.26972" lon="0.55481">
        <ele>142.78077428</ele>
        <time>2016-11-22T13:23:26Z</time>
      </trkpt>
      <trkpt lat="45.26976" lon="0.55451">
        <ele>133.78197852</ele>
        <time>2016-11-22T13:23:55Z</time>
      </trkpt>
      <trkpt lat="45.26977" lon="0.55413">
        <ele>126.78347612</ele>
        <time>2016-11-22T13:24:24Z</time>
      </trkpt>
      <trkpt lat="45.26969" lon="0.55372">
        <ele>120.78510288</ele>
        <time>2016-11-22T13:24:53Z</time>
      </trkpt>
      <trkpt lat="45.26968" lon="0.55337">
        <ele>115.78651488</ele>
        <time>2016-11-22T13:25:22Z</time>
      </trkpt>
      <trkpt lat="45.26963" lon="0.55289">
        <ele>109.78845932</ele>
        <time>2016-11-22T13:25:51Z</time>
      </trkpt>
      <trkpt lat="45.26963" lon="0.55254">
        <ele>108.78984612</ele>
        <time>2016-11-22T13:26:20Z</time>
      </trkpt>
      <trkpt lat="45.26961" lon="0.5521">
        <ele>110.79158728</ele>
        <time>2016-11-22T13:26:50Z</time>
      </trkpt>
      <trkpt lat="45.2697" lon="0.55165">
        <ele>104.79339488</ele>
        <time>2016-11-22T13:27:19Z</time>
      </trkpt>
      <trkpt lat="45.26975" lon="0.55123">
        <ele>100.79506656</ele>
        <time>2016-11-22T13:27:49Z</time>
      </trkpt>
      <trkpt lat="45.26977" lon="0.55084">
        <ele>98.79664396</ele>
        <time>2016-11-22T13:28:18Z</time>
      </trkpt>
      <trkpt lat="45.26973" lon="0.55036">
        <ele>93.79857232</ele>
        <time>2016-11-22T13:28:47Z</time>
      </trkpt>
      <trkpt lat="45.26995" lon="0.54978">
        <ele>82.80088184</ele>
        <time>2016-11-22T13:29:17Z</time>
      </trkpt>
      <trkpt lat="45.27011" lon="0.54933">
        <ele>79.80266624</ele>
        <time>2016-11-22T13:29:46Z</time>
      </trkpt>
      <trkpt lat="45.27026" lon="0.54889">
        <ele>77.8044486</ele>
        <time>2016-11-22T13:30:16Z</time>
      </trkpt>
      <trkpt lat="45.27013" lon="0.54852">
        <ele>81.80590688</ele>
        <time>2016-11-22T13:30:46Z</time>
      </trkpt>
      <trkpt lat="45.26996" lon="0.5485">
        <ele>88.8059824</ele>
        <time>2016-11-22T13:31:29Z</time>
      </trkpt>
      <trkpt lat="45.26966" lon="0.54874">
        <ele>92.80503736</ele>
        <time>2016-11-22T13:31:59Z</time>
      </trkpt>
      <trkpt lat="45.26946" lon="0.54906">
        <ele>94.80374444</ele>
        <time>2016-11-22T13:32:28Z</time>
      </trkpt>
      <trkpt lat="45.26921" lon="0.54929">
        <ele>98.80283792</ele>
        <time>2016-11-22T13:32:58Z</time>
      </trkpt>
      <trkpt lat="45.26902" lon="0.54943">
        <ele>99.80226596</ele>
        <time>2016-11-22T13:33:27Z</time>
      </trkpt>
      <trkpt lat="45.26876" lon="0.54964">
        <ele>102.80145176</ele>
        <time>2016-11-22T13:33:57Z</time>
      </trkpt>
      <trkpt lat="45.26852" lon="0.54983">
        <ele>105.80069232</ele>
        <time>2016-11-22T13:34:26Z</time>
      </trkpt>
      <trkpt lat="45.26834" lon="0.54984">
        <ele>105.80064628</ele>
        <time>2016-11-22T13:35:10Z</time>
      </trkpt>
      <trkpt lat="45.26819" lon="0.54971">
        <ele>108.80114856</ele>
        <time>2016-11-22T13:35:39Z</time>
      </trkpt>
      <trkpt lat="45.26797" lon="0.54944">
        <ele>111.80224336</ele>
        <time>2016-11-22T13:36:08Z</time>
      </trkpt>
      <trkpt lat="45.26768" lon="0.54917">
        <ele>120.80331588</ele>
        <time>2016-11-22T13:36:38Z</time>
      </trkpt>
      <trkpt lat="45.26739" lon="0.54892">
        <ele>122.80431256</ele>
        <time>2016-11-22T13:37:08Z</time>
      </trkpt>
      <trkpt lat="45.26724" lon="0.54876">
        <ele>126.8049588</ele>
        <time>2016-11-22T13:37:38Z</time>
      </trkpt>
      <trkpt lat="45.26707" lon="0.54866">
        <ele>131.80538092</ele>
        <time>2016-11-22T13:38:07Z</time>
      </trkpt>
      <trkpt lat="45.26687" lon="0.54857">
        <ele>134.80571508</ele>
        <time>2016-11-22T13:38:37Z</time>
      </trkpt>
      <trkpt lat="45.26661" lon="0.54847">
        <ele>135.80610544</ele>
        <time>2016-11-22T13:39:06Z</time>
      </trkpt>
      <trkpt lat="45.26633" lon="0.54847">
        <ele>139.80611948</ele>
        <time>2016-11-22T13:39:35Z</time>
      </trkpt>
      <trkpt lat="45.26601" lon="0.54857">
        <ele>146.80570464</ele>
        <time>2016-11-22T13:40:04Z</time>
      </trkpt>
      <trkpt lat="45.26562" lon="0.5487">
        <ele>146.8052124</ele>
        <time>2016-11-22T13:40:34Z</time>
      </trkpt>
      <trkpt lat="45.26524" lon="0.54875">
        <ele>157.80500016</ele>
        <time>2016-11-22T13:41:03Z</time>
      </trkpt>
      <trkpt lat="45.26479" lon="0.54882">
        <ele>161.8047206</ele>
        <time>2016-11-22T13:41:33Z</time>
      </trkpt>
      <trkpt lat="45.26447" lon="0.54888">
        <ele>160.80448252</ele>
        <time>2016-11-22T13:42:03Z</time>
      </trkpt>
      <trkpt lat="45.26421" lon="0.54884">
        <ele>156.804626</ele>
        <time>2016-11-22T13:42:32Z</time>
      </trkpt>
      <trkpt lat="45.26409" lon="0.54868">
        <ele>159.80528696</ele>
        <time>2016-11-22T13:45:19Z</time>
      </trkpt>
      <trkpt lat="45.26387" lon="0.54847">
        <ele>159.80613768</ele>
        <time>2016-11-22T13:45:49Z</time>
      </trkpt>
      <trkpt lat="45.26366" lon="0.54824">
        <ele>156.807036</ele>
        <time>2016-11-22T13:46:19Z</time>
      </trkpt>
      <trkpt lat="45.26339" lon="0.54804">
        <ele>148.8078608</ele>
        <time>2016-11-22T13:46:48Z</time>
      </trkpt>
      <trkpt lat="45.2631" lon="0.54787">
        <ele>139.80854184</ele>
        <time>2016-11-22T13:47:18Z</time>
      </trkpt>
      <trkpt lat="45.26284" lon="0.54777">
        <ele>138.80893908</ele>
        <time>2016-11-22T13:47:47Z</time>
      </trkpt>
      <trkpt lat="45.26254" lon="0.54769">
        <ele>134.80922524</ele>
        <time>2016-11-22T13:48:17Z</time>
      </trkpt>
      <trkpt lat="45.26221" lon="0.54757">
        <ele>134.80972812</ele>
        <time>2016-11-22T13:48:46Z</time>
      </trkpt>
      <trkpt lat="45.26178" lon="0.54772">
        <ele>119.80913072</ele>
        <time>2016-11-22T13:49:16Z</time>
      </trkpt>
      <trkpt lat="45.26152" lon="0.54784">
        <ele>118.80865244</ele>
        <time>2016-11-22T13:49:45Z</time>
      </trkpt>
      <trkpt lat="45.26111" lon="0.54797">
        <ele>115.80811576</ele>
        <time>2016-11-22T13:50:14Z</time>
      </trkpt>
      <trkpt lat="45.26073" lon="0.54798">
        <ele>113.80808584</ele>
        <time>2016-11-22T13:50:43Z</time>
      </trkpt>
      <trkpt lat="45.26044" lon="0.54832">
        <ele>115.8067296</ele>
        <time>2016-11-22T13:51:12Z</time>
      </trkpt>
      <trkpt lat="45.26018" lon="0.5487">
        <ele>115.80519588</ele>
        <time>2016-11-22T13:51:41Z</time>
      </trkpt>
      <trkpt lat="45.25994" lon="0.54913">
        <ele>109.80347432</ele>
        <time>2016-11-22T13:52:11Z</time>
      </trkpt>
      <trkpt lat="45.25983" lon="0.54965">
        <ele>106.80140204</ele>
        <time>2016-11-22T13:52:40Z</time>
      </trkpt>
      <trkpt lat="45.25974" lon="0.54984">
        <ele>102.80062428</ele>
        <time>2016-11-22T13:56:34Z</time>
      </trkpt>
      <trkpt lat="45.25956" lon="0.55011">
        <ele>103.7995816</ele>
        <time>2016-11-22T13:57:03Z</time>
      </trkpt>
      <trkpt lat="45.25934" lon="0.55039">
        <ele>103.79845308</ele>
        <time>2016-11-22T13:57:32Z</time>
      </trkpt>
      <trkpt lat="45.25916" lon="0.55075">
        <ele>105.79700704</ele>
        <time>2016-11-22T13:58:01Z</time>
      </trkpt>
      <trkpt lat="45.25903" lon="0.5511">
        <ele>108.79561452</ele>
        <time>2016-11-22T13:58:30Z</time>
      </trkpt>
      <trkpt lat="45.25884" lon="0.55141">
        <ele>111.79437484</ele>
        <time>2016-11-22T13:58:59Z</time>
      </trkpt>
      <trkpt lat="45.25864" lon="0.55178">
        <ele>109.7928636</ele>
        <time>2016-11-22T13:59:28Z</time>
      </trkpt>
      <trkpt lat="45.25842" lon="0.55209">
        <ele>107.7916502</ele>
        <time>2016-11-22T13:59:57Z</time>
      </trkpt>
      <trkpt lat="45.25833" lon="0.55247">
        <ele>114.79011216</ele>
        <time>2016-11-22T14:00:27Z</time>
      </trkpt>
      <trkpt lat="45.25831" lon="0.55297">
        <ele>116.78813244</ele>
        <time>2016-11-22T14:00:56Z</time>
      </trkpt>
      <trkpt lat="45.25821" lon="0.55336">
        <ele>115.78657888</ele>
        <time>2016-11-22T14:01:25Z</time>
      </trkpt>
      <trkpt lat="45.25815" lon="0.55379">
        <ele>114.78484216</ele>
        <time>2016-11-22T14:01:55Z</time>
      </trkpt>
      <trkpt lat="45.25811" lon="0.55413">
        <ele>116.78346396</ele>
        <time>2016-11-22T14:02:24Z</time>
      </trkpt>
      <trkpt lat="45.25809" lon="0.55461">
        <ele>121.78158112</ele>
        <time>2016-11-22T14:02:54Z</time>
      </trkpt>
      <trkpt lat="45.258" lon="0.55497">
        <ele>130.78011884</ele>
        <time>2016-11-22T14:03:24Z</time>
      </trkpt>
      <trkpt lat="45.25791" lon="0.5555">
        <ele>121.77800784</ele>
        <time>2016-11-22T14:03:53Z</time>
      </trkpt>
      <trkpt lat="45.25788" lon="0.55598">
        <ele>121.7760676</ele>
        <time>2016-11-22T14:04:22Z</time>
      </trkpt>
      <trkpt lat="45.25789" lon="0.55635">
        <ele>125.77458552</ele>
        <time>2016-11-22T14:04:52Z</time>
      </trkpt>
      <trkpt lat="45.25785" lon="0.5567">
        <ele>134.77322064</ele>
        <time>2016-11-22T14:05:21Z</time>
      </trkpt>
      <trkpt lat="45.25776" lon="0.55701">
        <ele>141.77195716</ele>
        <time>2016-11-22T14:05:50Z</time>
      </trkpt>
      <trkpt lat="45.25772" lon="0.55749">
        <ele>141.77004312</ele>
        <time>2016-11-22T14:06:19Z</time>
      </trkpt>
      <trkpt lat="45.25767" lon="0.55784">
        <ele>151.76865108</ele>
        <time>2016-11-22T14:06:48Z</time>
      </trkpt>
      <trkpt lat="45.25761" lon="0.55825">
        <ele>152.7670132</ele>
        <time>2016-11-22T14:07:17Z</time>
      </trkpt>
      <trkpt lat="45.25745" lon="0.55867">
        <ele>154.7653092</ele>
        <time>2016-11-22T14:07:47Z</time>
      </trkpt>
      <trkpt lat="45.25729" lon="0.55915">
        <ele>161.76340892</ele>
        <time>2016-11-22T14:08:17Z</time>
      </trkpt>
      <trkpt lat="45.25701" lon="0.5596">
        <ele>159.7616108</ele>
        <time>2016-11-22T14:08:46Z</time>
      </trkpt>
      <trkpt lat="45.25675" lon="0.55977">
        <ele>167.7609118</ele>
        <time>2016-11-22T14:09:15Z</time>
      </trkpt>
      <trkpt lat="45.25649" lon="0.55996">
        <ele>166.76017276</ele>
        <time>2016-11-22T14:09:44Z</time>
      </trkpt>
      <trkpt lat="45.2564" lon="0.55972">
        <ele>174.76113884</ele>
        <time>2016-11-22T14:10:13Z</time>
      </trkpt>
      <trkpt lat="45.25604" lon="0.55952">
        <ele>171.76190952</ele>
        <time>2016-11-22T14:10:42Z</time>
      </trkpt>
      <trkpt lat="45.25578" lon="0.55967">
        <ele>174.76132828</ele>
        <time>2016-11-22T14:11:11Z</time>
      </trkpt>
      <trkpt lat="45.25553" lon="0.55987">
        <ele>173.76053808</ele>
        <time>2016-11-22T14:11:41Z</time>
      </trkpt>
      <trkpt lat="45.25537" lon="0.55995">
        <ele>174.76020052</ele>
        <time>2016-11-22T14:13:58Z</time>
      </trkpt>
      <trkpt lat="45.25519" lon="0.56002">
        <ele>179.75991088</ele>
        <time>2016-11-22T14:15:22Z</time>
      </trkpt>
      <trkpt lat="45.25489" lon="0.56017">
        <ele>181.75932056</ele>
        <time>2016-11-22T14:15:52Z</time>
      </trkpt>
      <trkpt lat="45.25458" lon="0.56026">
        <ele>186.75896396</ele>
        <time>2016-11-22T14:16:21Z</time>
      </trkpt>
      <trkpt lat="45.2543" lon="0.56021">
        <ele>186.75916636</ele>
        <time>2016-11-22T14:16:50Z</time>
      </trkpt>
      <trkpt lat="45.25389" lon="0.56016">
        <ele>181.75936048</ele>
        <time>2016-11-22T14:17:19Z</time>
      </trkpt>
      <trkpt lat="45.25355" lon="0.56014">
        <ele>177.75945852</ele>
        <time>2016-11-22T14:17:48Z</time>
      </trkpt>
      <trkpt lat="45.25327" lon="0.5601">
        <ele>182.75960212</ele>
        <time>2016-11-22T14:18:18Z</time>
      </trkpt>
      <trkpt lat="45.2529" lon="0.55994">
        <ele>181.76023956</ele>
        <time>2016-11-22T14:18:47Z</time>
      </trkpt>
      <trkpt lat="45.25253" lon="0.55972">
        <ele>180.76111488</ele>
        <time>2016-11-22T14:19:16Z</time>
      </trkpt>
      <trkpt lat="45.25227" lon="0.55943">
        <ele>184.76229144</ele>
        <time>2016-11-22T14:19:45Z</time>
      </trkpt>
      <trkpt lat="45.25195" lon="0.55911">
        <ele>184.76357252</ele>
        <time>2016-11-22T14:20:15Z</time>
      </trkpt>
      <trkpt lat="45.25166" lon="0.55873">
        <ele>186.76507348</ele>
        <time>2016-11-22T14:20:45Z</time>
      </trkpt>
      <trkpt lat="45.25139" lon="0.55865">
        <ele>183.76540228</ele>
        <time>2016-11-22T14:21:15Z</time>
      </trkpt>
      <trkpt lat="45.25141" lon="0.55911">
        <ele>182.76358024</ele>
        <time>2016-11-22T14:21:44Z</time>
      </trkpt>
      <trkpt lat="45.25148" lon="0.55963">
        <ele>182.76149468</ele>
        <time>2016-11-22T14:22:14Z</time>
      </trkpt>
      <trkpt lat="45.25154" lon="0.56019">
        <ele>182.7592592</ele>
        <time>2016-11-22T14:22:43Z</time>
      </trkpt>
      <trkpt lat="45.25159" lon="0.56066">
        <ele>183.7573538</ele>
        <time>2016-11-22T14:23:12Z</time>
      </trkpt>
      <trkpt lat="45.25166" lon="0.56117">
        <ele>185.75532548</ele>
        <time>2016-11-22T14:23:42Z</time>
      </trkpt>
      <trkpt lat="45.25169" lon="0.56163">
        <ele>188.75347236</ele>
        <time>2016-11-22T14:24:11Z</time>
      </trkpt>
      <trkpt lat="45.25172" lon="0.56216">
        <ele>191.7513442</ele>
        <time>2016-11-22T14:24:40Z</time>
      </trkpt>
      <trkpt lat="45.25175" lon="0.56267">
        <ele>189.74933276</ele>
        <time>2016-11-22T14:25:09Z</time>
      </trkpt>
      <trkpt lat="45.25181" lon="0.56318">
        <ele>188.74728764</ele>
        <time>2016-11-22T14:25:39Z</time>
      </trkpt>
      <trkpt lat="45.25187" lon="0.56365">
        <ele>188.74538436</ele>
        <time>2016-11-22T14:26:08Z</time>
      </trkpt>
      <trkpt lat="45.25193" lon="0.56416">
        <ele>192.74336604</ele>
        <time>2016-11-22T14:26:38Z</time>
      </trkpt>
      <trkpt lat="45.25197" lon="0.56465">
        <ele>194.7414188</ele>
        <time>2016-11-22T14:27:08Z</time>
      </trkpt>
      <trkpt lat="45.25202" lon="0.56518">
        <ele>196.7392792</ele>
        <time>2016-11-22T14:27:37Z</time>
      </trkpt>
      <trkpt lat="45.25206" lon="0.56562">
        <ele>196.73750668</ele>
        <time>2016-11-22T14:28:06Z</time>
      </trkpt>
      <trkpt lat="45.25212" lon="0.56611">
        <ele>198.73557044</ele>
        <time>2016-11-22T14:28:35Z</time>
      </trkpt>
      <trkpt lat="45.25216" lon="0.56661">
        <ele>198.73355812</ele>
        <time>2016-11-22T14:29:04Z</time>
      </trkpt>
      <trkpt lat="45.2522" lon="0.56705">
        <ele>201.73181444</ele>
        <time>2016-11-22T14:29:33Z</time>
      </trkpt>
      <trkpt lat="45.25222" lon="0.56732">
        <ele>209.73074124</ele>
        <time>2016-11-22T14:30:02Z</time>
      </trkpt>
      <trkpt lat="45.25226" lon="0.56787">
        <ele>207.72850888</ele>
        <time>2016-11-22T14:30:31Z</time>
      </trkpt>
      <trkpt lat="45.25226" lon="0.56834">
        <ele>215.72662572</ele>
        <time>2016-11-22T14:31:01Z</time>
      </trkpt>
      <trkpt lat="45.25239" lon="0.56893">
        <ele>212.72426588</ele>
        <time>2016-11-22T14:31:30Z</time>
      </trkpt>
      <trkpt lat="45.25251" lon="0.56949">
        <ele>204.722052</ele>
        <time>2016-11-22T14:31:59Z</time>
      </trkpt>
      <trkpt lat="45.25268" lon="0.57007">
        <ele>202.71973168</ele>
        <time>2016-11-22T14:32:28Z</time>
      </trkpt>
      <trkpt lat="45.25276" lon="0.57057">
        <ele>202.71772296</ele>
        <time>2016-11-22T14:32:57Z</time>
      </trkpt>
      <trkpt lat="45.25287" lon="0.57106">
        <ele>199.71574432</ele>
        <time>2016-11-22T14:33:26Z</time>
      </trkpt>
      <trkpt lat="45.25295" lon="0.57129">
        <ele>192.7148378</ele>
        <time>2016-11-22T14:34:59Z</time>
      </trkpt>
      <trkpt lat="45.25324" lon="0.57111">
        <ele>193.71557176</ele>
        <time>2016-11-22T14:35:29Z</time>
      </trkpt>
      <trkpt lat="45.25355" lon="0.57087">
        <ele>192.71653644</ele>
        <time>2016-11-22T14:35:58Z</time>
      </trkpt>
      <trkpt lat="45.25387" lon="0.5706">
        <ele>192.71758312</ele>
        <time>2016-11-22T14:36:28Z</time>
      </trkpt>
      <trkpt lat="45.25416" lon="0.57044">
        <ele>199.71823284</ele>
        <time>2016-11-22T14:36:57Z</time>
      </trkpt>
      <trkpt lat="45.25442" lon="0.57041">
        <ele>206.71836032</ele>
        <time>2016-11-22T14:37:26Z</time>
      </trkpt>
      <trkpt lat="45.25471" lon="0.57037">
        <ele>212.7185334</ele>
        <time>2016-11-22T14:37:56Z</time>
      </trkpt>
      <trkpt lat="45.25508" lon="0.5703">
        <ele>221.7187972</ele>
        <time>2016-11-22T14:38:25Z</time>
      </trkpt>
      <trkpt lat="45.25549" lon="0.57005">
        <ele>211.7198088</ele>
        <time>2016-11-22T14:38:55Z</time>
      </trkpt>
      <trkpt lat="45.25588" lon="0.57">
        <ele>209.7200062</ele>
        <time>2016-11-22T14:39:25Z</time>
      </trkpt>
      <trkpt lat="45.25623" lon="0.56993">
        <ele>211.7202792</ele>
        <time>2016-11-22T14:39:54Z</time>
      </trkpt>
      <trkpt lat="45.25659" lon="0.56989">
        <ele>211.72045248</ele>
        <time>2016-11-22T14:40:24Z</time>
      </trkpt>
      <trkpt lat="45.25693" lon="0.56986">
        <ele>220.72054548</ele>
        <time>2016-11-22T14:40:53Z</time>
      </trkpt>
      <trkpt lat="45.25729" lon="0.56975">
        <ele>224.72101344</ele>
        <time>2016-11-22T14:41:23Z</time>
      </trkpt>
      <trkpt lat="45.25775" lon="0.56954">
        <ele>212.72183164</ele>
        <time>2016-11-22T14:41:53Z</time>
      </trkpt>
      <trkpt lat="45.25811" lon="0.56935">
        <ele>206.72260512</ele>
        <time>2016-11-22T14:42:22Z</time>
      </trkpt>
      <trkpt lat="45.25845" lon="0.56925">
        <ele>209.72300872</ele>
        <time>2016-11-22T14:42:51Z</time>
      </trkpt>
      <trkpt lat="45.25881" lon="0.5692">
        <ele>209.72321728</ele>
        <time>2016-11-22T14:43:20Z</time>
      </trkpt>
      <trkpt lat="45.25921" lon="0.56912">
        <ele>209.72351548</ele>
        <time>2016-11-22T14:43:49Z</time>
      </trkpt>
      <trkpt lat="45.25955" lon="0.56916">
        <ele>208.723346</ele>
        <time>2016-11-22T14:44:18Z</time>
      </trkpt>
      <trkpt lat="45.25997" lon="0.56911">
        <ele>208.72356876</ele>
        <time>2016-11-22T14:44:48Z</time>
      </trkpt>
      <trkpt lat="45.26033" lon="0.56912">
        <ele>208.72353952</ele>
        <time>2016-11-22T14:45:18Z</time>
      </trkpt>
      <trkpt lat="45.26068" lon="0.56921">
        <ele>209.72317288</ele>
        <time>2016-11-22T14:45:47Z</time>
      </trkpt>
      <trkpt lat="45.26104" lon="0.5694">
        <ele>209.7223968</ele>
        <time>2016-11-22T14:46:17Z</time>
      </trkpt>
      <trkpt lat="45.26139" lon="0.56962">
        <ele>207.72153152</ele>
        <time>2016-11-22T14:46:46Z</time>
      </trkpt>
      <trkpt lat="45.26171" lon="0.56986">
        <ele>208.7205604</ele>
        <time>2016-11-22T14:47:16Z</time>
      </trkpt>
      <trkpt lat="45.26186" lon="0.56999">
        <ele>204.72003904</ele>
        <time>2016-11-22T14:51:58Z</time>
      </trkpt>
      <trkpt lat="45.26179" lon="0.5703">
        <ele>211.71878512</ele>
        <time>2016-11-22T14:52:28Z</time>
      </trkpt>
      <trkpt lat="45.2617" lon="0.57077">
        <ele>211.71692888</ele>
        <time>2016-11-22T14:52:58Z</time>
      </trkpt>
      <trkpt lat="45.26165" lon="0.57127">
        <ele>207.71491504</ele>
        <time>2016-11-22T14:53:27Z</time>
      </trkpt>
      <trkpt lat="45.26173" lon="0.57189">
        <ele>201.71246052</ele>
        <time>2016-11-22T14:53:57Z</time>
      </trkpt>
      <trkpt lat="45.26196" lon="0.57218">
        <ele>202.71127488</ele>
        <time>2016-11-22T14:54:27Z</time>
      </trkpt>
      <trkpt lat="45.26222" lon="0.57246">
        <ele>198.71018104</ele>
        <time>2016-11-22T14:54:56Z</time>
      </trkpt>
      <trkpt lat="45.26249" lon="0.5727">
        <ele>203.70918556</ele>
        <time>2016-11-22T14:55:26Z</time>
      </trkpt>
      <trkpt lat="45.26274" lon="0.5729">
        <ele>206.70839916</ele>
        <time>2016-11-22T14:55:55Z</time>
      </trkpt>
      <trkpt lat="45.26278" lon="0.57315">
        <ele>197.7073932</ele>
        <time>2016-11-22T14:56:24Z</time>
      </trkpt>
      <trkpt lat="45.26278" lon="0.57361">
        <ele>190.70556208</ele>
        <time>2016-11-22T14:56:53Z</time>
      </trkpt>
      <trkpt lat="45.26302" lon="0.574">
        <ele>195.70399308</ele>
        <time>2016-11-22T14:57:22Z</time>
      </trkpt>
      <trkpt lat="45.26313" lon="0.57432">
        <ele>198.7027212</ele>
        <time>2016-11-22T14:57:52Z</time>
      </trkpt>
      <trkpt lat="45.26338" lon="0.57468">
        <ele>190.701264</ele>
        <time>2016-11-22T14:58:21Z</time>
      </trkpt>
      <trkpt lat="45.26379" lon="0.5749">
        <ele>191.70038708</ele>
        <time>2016-11-22T14:58:50Z</time>
      </trkpt>
      <trkpt lat="45.26424" lon="0.57481">
        <ele>191.70077284</ele>
        <time>2016-11-22T14:59:20Z</time>
      </trkpt>
      <trkpt lat="45.26456" lon="0.57473">
        <ele>189.70106376</ele>
        <time>2016-11-22T14:59:50Z</time>
      </trkpt>
      <trkpt lat="45.26482" lon="0.57476">
        <ele>197.70097728</ele>
        <time>2016-11-22T15:00:19Z</time>
      </trkpt>
      <trkpt lat="45.26519" lon="0.57476">
        <ele>196.70095448</ele>
        <time>2016-11-22T15:00:48Z</time>
      </trkpt>
      <trkpt lat="45.26547" lon="0.57495">
        <ele>202.70022088</ele>
        <time>2016-11-22T15:01:17Z</time>
      </trkpt>
      <trkpt lat="45.26583" lon="0.57502">
        <ele>197.69990948</ele>
        <time>2016-11-22T15:01:47Z</time>
      </trkpt>
      <trkpt lat="45.26616" lon="0.57518">
        <ele>198.6992788</ele>
        <time>2016-11-22T15:02:16Z</time>
      </trkpt>
      <trkpt lat="45.26633" lon="0.57512">
        <ele>190.69952224</ele>
        <time>2016-11-22T15:03:36Z</time>
      </trkpt>
      <trkpt lat="45.26658" lon="0.57532">
        <ele>188.69871904</ele>
        <time>2016-11-22T15:04:06Z</time>
      </trkpt>
      <trkpt lat="45.26684" lon="0.57553">
        <ele>182.69787268</ele>
        <time>2016-11-22T15:04:35Z</time>
      </trkpt>
      <trkpt lat="45.26713" lon="0.57556">
        <ele>183.69777932</ele>
        <time>2016-11-22T15:05:05Z</time>
      </trkpt>
      <trkpt lat="45.26742" lon="0.57564">
        <ele>182.69745564</ele>
        <time>2016-11-22T15:05:34Z</time>
      </trkpt>
      <trkpt lat="45.26773" lon="0.57559">
        <ele>187.69764808</ele>
        <time>2016-11-22T15:06:03Z</time>
      </trkpt>
      <trkpt lat="45.26802" lon="0.57544">
        <ele>192.69823604</ele>
        <time>2016-11-22T15:06:32Z</time>
      </trkpt>
      <trkpt lat="45.26833" lon="0.57532">
        <ele>192.69871676</ele>
        <time>2016-11-22T15:07:02Z</time>
      </trkpt>
      <trkpt lat="45.26856" lon="0.57525">
        <ele>191.69899968</ele>
        <time>2016-11-22T15:07:31Z</time>
      </trkpt>
      <trkpt lat="45.2688" lon="0.57505">
        <ele>194.69981396</ele>
        <time>2016-11-22T15:08:00Z</time>
      </trkpt>
      <trkpt lat="45.26911" lon="0.57467">
        <ele>196.7013102</ele>
        <time>2016-11-22T15:08:29Z</time>
      </trkpt>
      <trkpt lat="45.26937" lon="0.5743">
        <ele>192.70279524</ele>
        <time>2016-11-22T15:08:58Z</time>
      </trkpt>
      <trkpt lat="45.26964" lon="0.57397">
        <ele>197.70411384</ele>
        <time>2016-11-22T15:09:28Z</time>
      </trkpt>
      <trkpt lat="45.26983" lon="0.57369">
        <ele>195.70522208</ele>
        <time>2016-11-22T15:09:57Z</time>
      </trkpt>
      <trkpt lat="45.26993" lon="0.57327">
        <ele>199.70690516</ele>
        <time>2016-11-22T15:10:27Z</time>
      </trkpt>
      <trkpt lat="45.27001" lon="0.57293">
        <ele>200.70829172</ele>
        <time>2016-11-22T15:10:57Z</time>
      </trkpt>
      <trkpt lat="45.2702" lon="0.57265">
        <ele>198.70941424</ele>
        <time>2016-11-22T15:11:26Z</time>
      </trkpt>
      <trkpt lat="45.27041" lon="0.57243">
        <ele>202.71028824</ele>
        <time>2016-11-22T15:11:56Z</time>
      </trkpt>
      <trkpt lat="45.2706" lon="0.57221">
        <ele>202.7111504</ele>
        <time>2016-11-22T15:12:25Z</time>
      </trkpt>
      <trkpt lat="45.27088" lon="0.57209">
        <ele>202.71164416</ele>
        <time>2016-11-22T15:12:55Z</time>
      </trkpt>
      <trkpt lat="45.27113" lon="0.57163">
        <ele>196.71349344</ele>
        <time>2016-11-22T15:13:25Z</time>
      </trkpt>
      <trkpt lat="45.27133" lon="0.57126">
        <ele>195.71496748</ele>
        <time>2016-11-22T15:13:54Z</time>
      </trkpt>
      <trkpt lat="45.27158" lon="0.57108">
        <ele>192.71569004</ele>
        <time>2016-11-22T15:14:23Z</time>
      </trkpt>
      <trkpt lat="45.27192" lon="0.57095">
        <ele>186.71620992</ele>
        <time>2016-11-22T15:14:53Z</time>
      </trkpt>
      <trkpt lat="45.2723" lon="0.57054">
        <ele>189.71784304</ele>
        <time>2016-11-22T15:15:23Z</time>
      </trkpt>
      <trkpt lat="45.27252" lon="0.57017">
        <ele>186.71931</ele>
        <time>2016-11-22T15:15:52Z</time>
      </trkpt>
      <trkpt lat="45.2727" lon="0.56975">
        <ele>180.72101796</ele>
        <time>2016-11-22T15:16:21Z</time>
      </trkpt>
      <trkpt lat="45.27285" lon="0.56929">
        <ele>175.72282628</ele>
        <time>2016-11-22T15:16:51Z</time>
      </trkpt>
      <trkpt lat="45.27294" lon="0.56885">
        <ele>174.72458892</ele>
        <time>2016-11-22T15:17:20Z</time>
      </trkpt>
      <trkpt lat="45.27306" lon="0.56847">
        <ele>172.72612496</ele>
        <time>2016-11-22T15:17:50Z</time>
      </trkpt>
      <trkpt lat="45.27322" lon="0.56799">
        <ele>164.72803884</ele>
        <time>2016-11-22T15:18:19Z</time>
      </trkpt>
      <trkpt lat="45.27341" lon="0.56764">
        <ele>153.72942492</ele>
        <time>2016-11-22T15:18:48Z</time>
      </trkpt>
      <trkpt lat="45.27353" lon="0.56717">
        <ele>155.73133576</ele>
        <time>2016-11-22T15:19:18Z</time>
      </trkpt>
      <trkpt lat="45.27364" lon="0.56663">
        <ele>155.7334722</ele>
        <time>2016-11-22T15:19:47Z</time>
      </trkpt>
      <trkpt lat="45.27363" lon="0.56616">
        <ele>157.73537896</ele>
        <time>2016-11-22T15:20:16Z</time>
      </trkpt>
      <trkpt lat="45.27353" lon="0.56568">
        <ele>151.73729572</ele>
        <time>2016-11-22T15:20:45Z</time>
      </trkpt>
      <trkpt lat="45.27355" lon="0.56532">
        <ele>145.73874176</ele>
        <time>2016-11-22T15:21:14Z</time>
      </trkpt>
      <trkpt lat="45.27361" lon="0.56509">
        <ele>137.7396252</ele>
        <time>2016-11-22T15:21:44Z</time>
      </trkpt>
      <trkpt lat="45.27376" lon="0.56462">
        <ele>131.74151104</ele>
        <time>2016-11-22T15:22:13Z</time>
      </trkpt>
      <trkpt lat="45.27368" lon="0.5642">
        <ele>136.74320344</ele>
        <time>2016-11-22T15:22:43Z</time>
      </trkpt>
      <trkpt lat="45.27379" lon="0.56388">
        <ele>130.74447116</ele>
        <time>2016-11-22T15:23:12Z</time>
      </trkpt>
      <trkpt lat="45.27391" lon="0.56353">
        <ele>122.74588796</ele>
        <time>2016-11-22T15:23:42Z</time>
      </trkpt>
      <trkpt lat="45.27415" lon="0.56313">
        <ele>114.74746464</ele>
        <time>2016-11-22T15:24:11Z</time>
      </trkpt>
      <trkpt lat="45.27435" lon="0.56273">
        <ele>113.74906752</ele>
        <time>2016-11-22T15:24:40Z</time>
      </trkpt>
      <trkpt lat="45.27454" lon="0.56225">
        <ele>116.75100776</ele>
        <time>2016-11-22T15:25:10Z</time>
      </trkpt>
      <trkpt lat="45.27474" lon="0.56177">
        <ele>116.75291196</ele>
        <time>2016-11-22T15:25:40Z</time>
      </trkpt>
      <trkpt lat="45.27491" lon="0.56129">
        <ele>116.75483048</ele>
        <time>2016-11-22T15:26:09Z</time>
      </trkpt>
      <trkpt lat="45.27512" lon="0.56094">
        <ele>116.75622824</ele>
        <time>2016-11-22T15:26:39Z</time>
      </trkpt>
      <trkpt lat="45.27536" lon="0.56046">
        <ele>111.75816048</ele>
        <time>2016-11-22T15:27:08Z</time>
      </trkpt>
      <trkpt lat="45.27558" lon="0.56001">
        <ele>115.75994932</ele>
        <time>2016-11-22T15:27:38Z</time>
      </trkpt>
      <trkpt lat="45.27572" lon="0.55949">
        <ele>111.76203312</ele>
        <time>2016-11-22T15:28:07Z</time>
      </trkpt>
      <trkpt lat="45.27584" lon="0.55899">
        <ele>110.76404064</ele>
        <time>2016-11-22T15:28:36Z</time>
      </trkpt>
      <trkpt lat="45.27592" lon="0.55843">
        <ele>106.76629616</ele>
        <time>2016-11-22T15:29:06Z</time>
      </trkpt>
      <trkpt lat="45.27585" lon="0.55789">
        <ele>105.76845344</ele>
        <time>2016-11-22T15:29:35Z</time>
      </trkpt>
      <trkpt lat="45.27573" lon="0.5574">
        <ele>105.77040116</ele>
        <time>2016-11-22T15:30:04Z</time>
      </trkpt>
      <trkpt lat="45.27573" lon="0.55683">
        <ele>102.77268992</ele>
        <time>2016-11-22T15:30:34Z</time>
      </trkpt>
      <trkpt lat="45.27565" lon="0.55638">
        <ele>103.77447604</ele>
        <time>2016-11-22T15:31:03Z</time>
      </trkpt>
      <trkpt lat="45.27569" lon="0.55589">
        <ele>105.77644804</ele>
        <time>2016-11-22T15:31:32Z</time>
      </trkpt>
      <trkpt lat="45.27579" lon="0.55536">
        <ele>105.77854892</ele>
        <time>2016-11-22T15:32:02Z</time>
      </trkpt>
      <trkpt lat="45.2759" lon="0.55486">
        <ele>98.780576</ele>
        <time>2016-11-22T15:32:32Z</time>
      </trkpt>
      <trkpt lat="45.27601" lon="0.55443">
        <ele>100.78228128</ele>
        <time>2016-11-22T15:33:01Z</time>
      </trkpt>
      <trkpt lat="45.2762" lon="0.55398">
        <ele>98.78406204</ele>
        <time>2016-11-22T15:33:31Z</time>
      </trkpt>
      <trkpt lat="45.27636" lon="0.55355">
        <ele>97.78580112</ele>
        <time>2016-11-22T15:34:00Z</time>
      </trkpt>
      <trkpt lat="45.27651" lon="0.55312">
        <ele>98.78751672</ele>
        <time>2016-11-22T15:34:29Z</time>
      </trkpt>
      <trkpt lat="45.27671" lon="0.55267">
        <ele>97.78933232</ele>
        <time>2016-11-22T15:34:58Z</time>
      </trkpt>
      <trkpt lat="45.27688" lon="0.55229">
        <ele>99.7908276</ele>
        <time>2016-11-22T15:35:27Z</time>
      </trkpt>
      <trkpt lat="45.27713" lon="0.55193">
        <ele>97.79228232</ele>
        <time>2016-11-22T15:35:57Z</time>
      </trkpt>
      <trkpt lat="45.27739" lon="0.5515">
        <ele>92.79400616</ele>
        <time>2016-11-22T15:36:27Z</time>
      </trkpt>
      <trkpt lat="45.27765" lon="0.55114">
        <ele>89.79545976</ele>
        <time>2016-11-22T15:36:56Z</time>
      </trkpt>
      <trkpt lat="45.27784" lon="0.55071">
        <ele>89.79717816</ele>
        <time>2016-11-22T15:37:26Z</time>
      </trkpt>
      <trkpt lat="45.27793" lon="0.55025">
        <ele>88.79902164</ele>
        <time>2016-11-22T15:37:55Z</time>
      </trkpt>
      <trkpt lat="45.27818" lon="0.55014">
        <ele>91.79942412</ele>
        <time>2016-11-22T15:38:24Z</time>
      </trkpt>
      <trkpt lat="45.27831" lon="0.54997">
        <ele>85.80010508</ele>
        <time>2016-11-22T15:40:09Z</time>
      </trkpt>
      <trkpt lat="45.27848" lon="0.54975">
        <ele>88.80099776</ele>
        <time>2016-11-22T15:40:38Z</time>
      </trkpt>
      <trkpt lat="45.27848" lon="0.54975">
        <ele>88.80100428</ele>
        <time>2016-11-22T15:40:54Z</time>
      </trkpt>
      <trkpt lat="45.27848" lon="0.54975">
        <ele>88.80100428</ele>
        <time>2016-11-22T15:40:55Z</time>
      </trkpt>
    </trkseg>
  </trk>
</gpx>